createdAt,value
2023-05-14T06:15:00.479Z,101890
2023-05-14T06:20:00.360Z,101880
2023-05-14T06:25:00.419Z,101890
2023-05-14T06:30:00.421Z,101900
2023-05-14T06:35:00.378Z,101900
2023-05-14T06:40:00.889Z,101900
2023-05-14T06:45:00.446Z,101900
2023-05-14T06:50:00.389Z,101900
2023-05-14T06:55:00.350Z,101900
2023-05-14T07:00:02.814Z,101890
2023-05-14T07:05:00.330Z,101890
2023-05-14T07:10:00.325Z,101890
2023-05-14T07:15:00.365Z,101890
2023-05-14T07:20:00.331Z,101880
2023-05-14T07:25:00.359Z,101890
2023-05-14T07:30:00.412Z,101880
2023-05-14T07:35:00.551Z,101890
2023-05-14T07:40:00.351Z,101880
2023-05-14T07:45:00.494Z,101880
2023-05-14T07:50:00.352Z,101870
2023-05-14T07:55:02.095Z,101870
2023-05-14T08:00:00.731Z,101870
2023-05-14T08:05:00.348Z,101870
2023-05-14T08:10:00.521Z,101880
2023-05-14T08:15:01.109Z,101880
2023-05-14T08:20:00.579Z,101880
2023-05-14T08:25:00.347Z,101880
2023-05-14T08:30:00.375Z,101870
2023-05-14T08:35:00.372Z,101880
2023-05-14T08:40:00.455Z,101890
2023-05-14T08:45:02.192Z,101890
2023-05-14T08:50:02.900Z,101880
2023-05-14T08:55:03.288Z,101870
2023-05-14T09:00:01.723Z,101870
2023-05-14T09:05:01.488Z,101860
2023-05-14T09:10:01.323Z,101860
2023-05-14T09:15:00.377Z,101850
2023-05-14T09:20:00.355Z,101860
2023-05-14T09:25:05.422Z,101850
2023-05-14T09:30:04.366Z,101840
2023-05-14T09:35:08.618Z,101830
2023-05-14T09:40:05.718Z,101830
2023-05-14T09:45:00.394Z,101830
2023-05-14T09:50:00.484Z,101830
2023-05-14T09:55:00.753Z,101820
2023-05-14T10:00:00.581Z,101820
2023-05-14T10:05:02.844Z,101820
2023-05-14T10:10:02.638Z,101820
2023-05-14T10:15:05.638Z,101810
2023-05-14T10:20:02.267Z,101810
2023-05-14T10:25:02.092Z,101810
2023-05-14T10:30:04.947Z,101800
2023-05-14T10:35:00.565Z,101800
2023-05-14T10:40:02.282Z,101790
2023-05-14T10:45:04.483Z,101780
2023-05-14T10:50:03.954Z,101780
2023-05-14T10:55:03.834Z,101780
2023-05-14T11:00:01.108Z,101770
2023-05-14T11:05:03.188Z,101780
2023-05-14T11:10:03.500Z,101760
2023-05-14T11:15:03.104Z,101770
2023-05-14T11:20:00.573Z,101760
2023-05-14T11:25:00.424Z,101750
2023-05-14T11:30:01.019Z,101750
2023-05-14T11:35:00.332Z,101750
2023-05-14T11:40:00.808Z,101740
2023-05-14T11:45:00.416Z,101740
2023-05-14T11:50:00.342Z,101730
2023-05-14T11:55:01.239Z,101720
2023-05-14T12:00:00.425Z,101720
2023-05-14T12:05:00.361Z,101710
2023-05-14T12:10:03.627Z,101710
2023-05-14T12:15:00.382Z,101710
2023-05-14T12:20:00.421Z,101700
2023-05-14T12:25:00.358Z,101710
2023-05-14T12:30:19.185Z,101710
2023-05-14T12:35:00.549Z,101700
2023-05-14T12:40:00.422Z,101690
2023-05-14T12:45:00.376Z,101690
2023-05-14T12:50:00.380Z,101690
2023-05-14T12:55:00.423Z,101680
2023-05-14T13:00:01.751Z,101670
2023-05-14T13:05:00.331Z,101670
2023-05-14T13:10:00.357Z,101660
2023-05-14T13:15:00.366Z,101660
2023-05-14T13:20:00.342Z,101660
2023-05-14T13:25:00.349Z,101660
2023-05-14T13:30:00.612Z,101660
2023-05-14T13:35:00.324Z,101650
2023-05-14T13:40:00.400Z,101640
2023-05-14T13:45:00.412Z,101640
2023-05-14T13:50:00.388Z,101630
2023-05-14T13:55:00.353Z,101630
2023-05-14T14:00:00.576Z,101630
2023-05-14T14:05:00.376Z,101620
2023-05-14T14:10:00.346Z,101620
2023-05-14T14:15:00.349Z,101620
2023-05-14T14:20:00.356Z,101620
2023-05-14T14:25:00.827Z,101620
2023-05-14T14:30:00.341Z,101610
2023-05-14T14:35:00.326Z,101610
2023-05-14T14:40:00.360Z,101600
2023-05-14T14:45:00.390Z,101600
2023-05-14T14:50:00.395Z,101600
2023-05-14T14:55:00.429Z,101610
2023-05-14T15:00:02.308Z,101610
2023-05-14T15:05:00.310Z,101610
2023-05-14T15:10:00.396Z,101600
2023-05-14T15:15:00.338Z,101600
2023-05-14T15:20:00.441Z,101600
2023-05-14T15:25:00.344Z,101590
2023-05-14T15:30:00.363Z,101590
2023-05-14T15:35:00.365Z,101590
2023-05-14T15:40:00.357Z,101580
2023-05-14T15:45:00.355Z,101580
2023-05-14T15:50:00.975Z,101570
2023-05-14T15:55:00.496Z,101570
2023-05-14T16:00:00.606Z,101570
2023-05-14T16:05:00.363Z,101570
2023-05-14T16:10:00.346Z,101570
2023-05-14T16:15:00.394Z,101570
2023-05-14T16:20:00.498Z,101570
2023-05-14T16:25:03.268Z,101570
2023-05-14T16:30:00.378Z,101580
2023-05-14T16:35:00.381Z,101570
2023-05-14T16:40:00.471Z,101570
2023-05-14T16:45:00.310Z,101570
2023-05-14T16:50:00.348Z,101570
2023-05-14T16:55:00.533Z,101580
2023-05-14T17:00:00.422Z,101580
2023-05-14T17:05:01.757Z,101580
2023-05-14T17:10:00.479Z,101590
2023-05-14T17:15:01.989Z,101580
2023-05-14T17:20:00.910Z,101580
2023-05-14T17:25:00.814Z,101580
2023-05-14T17:30:01.026Z,101590
2023-05-14T17:35:00.338Z,101590
2023-05-14T17:40:00.353Z,101590
2023-05-14T17:45:00.503Z,101590
2023-05-14T17:50:00.332Z,101590
2023-05-14T17:55:00.307Z,101600
2023-05-14T18:00:01.004Z,101600
2023-05-14T18:05:00.427Z,101600
2023-05-14T18:10:00.971Z,101600
2023-05-14T18:15:00.352Z,101600
2023-05-14T18:20:00.401Z,101610
2023-05-14T18:25:00.381Z,101610
2023-05-14T18:30:00.409Z,101610
2023-05-14T18:35:00.332Z,101620
2023-05-14T18:40:01.298Z,101620
2023-05-14T18:45:00.340Z,101620
2023-05-14T18:50:00.503Z,101630
2023-05-14T18:55:00.316Z,101630
2023-05-14T19:00:00.447Z,101630
2023-05-14T19:05:00.348Z,101640
2023-05-14T19:10:00.346Z,101630
2023-05-14T19:15:00.416Z,101640
2023-05-14T19:20:00.358Z,101640
2023-05-14T19:25:00.318Z,101640
2023-05-14T19:30:00.363Z,101640
2023-05-14T19:35:00.366Z,101630
2023-05-14T19:40:00.368Z,101640
2023-05-14T19:45:00.379Z,101640
2023-05-14T19:50:00.336Z,101640
2023-05-14T19:55:00.319Z,101650
2023-05-14T20:00:00.408Z,101650
2023-05-14T20:05:00.342Z,101650
2023-05-14T20:10:00.594Z,101650
2023-05-14T20:15:00.404Z,101650
2023-05-14T20:20:00.396Z,101650
2023-05-14T20:25:00.364Z,101650
2023-05-14T20:30:00.405Z,101650
2023-05-14T20:35:00.367Z,101650
2023-05-14T20:40:01.140Z,101650
2023-05-14T20:45:00.336Z,101650
2023-05-14T20:50:00.598Z,101650
2023-05-14T20:55:02.028Z,101650
2023-05-14T21:00:01.360Z,101650
2023-05-14T21:05:00.412Z,101640
2023-05-14T21:10:00.411Z,101630
2023-05-14T21:15:00.367Z,101630
2023-05-14T21:20:00.451Z,101630
2023-05-14T21:25:00.358Z,101630
2023-05-14T21:30:00.349Z,101630
2023-05-14T21:35:00.463Z,101630
2023-05-14T21:40:00.590Z,101630
2023-05-14T21:45:00.794Z,101630
2023-05-14T21:50:00.461Z,101620
2023-05-14T21:55:00.336Z,101620
2023-05-14T22:00:02.047Z,101610
2023-05-14T22:05:00.347Z,101610
2023-05-14T22:10:00.355Z,101610
2023-05-14T22:15:00.374Z,101610
2023-05-14T22:20:02.551Z,101610
2023-05-14T22:25:00.399Z,101600
2023-05-14T22:30:00.473Z,101600
2023-05-14T22:35:00.349Z,101600
2023-05-14T22:40:00.375Z,101590
2023-05-14T22:45:00.471Z,101590
2023-05-14T22:50:00.332Z,101580
2023-05-14T22:55:00.315Z,101580
2023-05-14T23:00:00.777Z,101570
2023-05-14T23:05:00.356Z,101580
2023-05-14T23:10:00.353Z,101570
2023-05-14T23:15:00.352Z,101570
2023-05-14T23:20:00.379Z,101560
2023-05-14T23:25:00.353Z,101570
2023-05-14T23:30:00.381Z,101560
2023-05-14T23:35:00.402Z,101560
2023-05-14T23:40:00.323Z,101550
2023-05-14T23:45:00.325Z,101540
2023-05-14T23:50:00.470Z,101540
2023-05-14T23:55:00.375Z,101530
